• Join FlightAware (Why Join?)
  • Login
  • US Flag 
04:57PM EDT


 

Airport Tracker/Info


-or-


 

Live Flight TrackerFlight Track Log ✈ CTL16 ✈ 29-Apr-2013 ✈ KHAO - KBKL

Flight Track Log - Related Links

Times and Time Zones

All times are in EDT time to prevent confusion due to time zone crossing. See the CTL16 flight status page for this flight to view local times or setup timezone preferences in your user account.

Time Position Orientation Groundspeed Altitude Reporting Facility
EDT Latitude Longitude Course Direction KTS MPH feet Rate Location/Type
08:26PM 39.3833 -84.5333 50° Northeast 147 169 1,600  Level Cincinnati TRACON
08:26PM 39.3919 -84.5203 50° Northeast 137 158 2,000 720 Climbing Indianapolis Center
08:27PM 39.4089 -84.4956 48° Northeast 147 169 2,400 600 Climbing Indianapolis Center
08:28PM 39.4322 -84.4611 49° Northeast 142 163 2,900 600 Climbing Indianapolis Center
08:29PM 39.4628 -84.4178 48° Northeast 159 183 3,600 660 Climbing Indianapolis Center
08:30PM 39.4969 -84.3753 44° Northeast 164 189 4,300 720 Climbing Indianapolis Center
08:31PM 39.5364 -84.3272 43° Northeast 166 191 5,100 780 Climbing Indianapolis Center
08:32PM 39.5681 -84.2897 42° Northeast 161 185 5,900 600 Climbing Indianapolis Center
08:33PM 39.5986 -84.2478 47° Northeast 161 185 6,400 480 Climbing Indianapolis Center
08:34PM 39.6378 -84.2017 42° Northeast 164 189 7,000 360 Climbing Indianapolis Center
08:35PM 39.6681 -84.1622 45° Northeast 171 197 7,200  Climbing Indianapolis Center
08:36PM 39.6989 -84.1175 48° Northeast 181 208 7,100 -120 Descending Indianapolis Center
08:37PM 39.7386 -84.0656 45° Northeast 189 217 7,000 -60 Descending Indianapolis Center
08:38PM 39.7783 -84.0111 46° Northeast 181 208 7,000  Level Indianapolis Center
08:39PM 39.8086 -83.9714 45° Northeast 181 208 7,100  Climbing Indianapolis Center
08:40PM 39.8461 -83.9192 47° Northeast 185 213 7,100  Level Indianapolis Center
08:41PM 39.8764 -83.8797 45° Northeast 184 212 7,100 -180 Level Indianapolis Center
08:41PM 39.8839 -83.8717 39° Northeast 183 211 6,900  Descending Indianapolis Center
08:42PM 39.9203 -83.8256 44° Northeast 183 211 7,100  Climbing Indianapolis Center
08:43PM 39.9553 -83.7781 46° Northeast 183 211 7,000 -60 Descending Indianapolis Center
08:44PM 40.0003 -83.7217 44° Northeast 183 211 7,000  Level Indianapolis Center
08:45PM 40.0272 -83.6864 45° Northeast 182 209 7,100  Climbing Indianapolis Center
08:45PM 40.0353 -83.6728 52° Northeast 182 209 7,000  Descending Indianapolis Center
08:46PM 40.0603 -83.6361 48° Northeast 182 209 7,100  Climbing Indianapolis Center
08:46PM 40.0708 -83.6244 40° Northeast 182 209 7,000 -120 Descending Indianapolis Center
08:47PM 40.0992 -83.5892 44° Northeast 184 212 7,000  Level Indianapolis Center
08:47PM 40.1078 -83.5775 46° Northeast 182 209 7,000 -120 Level Indianapolis Center
08:48PM 40.1386 -83.5367 45° Northeast 184 212 6,900  Descending Indianapolis Center
08:49PM 40.1797 -83.4806 46° Northeast 184 212 7,000  Climbing Indianapolis Center
08:50PM 40.2153 -83.4342 45° Northeast 184 212 7,000  Level Indianapolis Center
08:51PM 40.2519 -83.3867 45° Northeast 182 209 7,000  Level Indianapolis Center
08:52PM 40.2889 -83.3419 43° Northeast 183 211 7,000  Level Indianapolis Center
08:53PM 40.3186 -83.3047 44° Northeast 184 212 7,000  Level Indianapolis Center
08:53PM 40.3269 -83.2908 52° Northeast 186 214 7,000  Level Indianapolis Center
08:54PM 40.3622 -83.2419 47° Northeast 184 212 7,000  Level Indianapolis Center
08:55PM 40.3958 -83.1911 49° Northeast 182 209 7,000  Level Indianapolis Center
08:56PM 40.4322 -83.1428 45° Northeast 186 214 7,000  Level Indianapolis Center
08:58PM 40.4742 -83.0853 46° Northeast 187 215 7,000  Level Indianapolis Center
08:59PM 40.5083 -83.0342 49° Northeast 186 214 7,000  Level Indianapolis Center
09:00PM 40.5431 -82.9850 47° Northeast 186 214 7,000  Level Indianapolis Center
09:01PM 40.5775 -82.9356 47° Northeast 183 211 7,000  Level Indianapolis Center
09:02PM 40.6150 -82.8847 46° Northeast 189 217 7,100 -60 Climbing Indianapolis Center
09:03PM 40.6503 -82.8336 48° Northeast 188 216 6,900 -300 Descending Indianapolis Center
09:04PM 40.6875 -82.7811 47° Northeast 194 223 6,500 -420 Descending Indianapolis Center
09:05PM 40.7264 -82.7297 45° Northeast 196 226 6,100 -480 Descending Indianapolis Center
09:06PM 40.7647 -82.6764 46° Northeast 198 228 5,600 -540 Descending Indianapolis Center
09:07PM 40.8017 -82.6214 48° Northeast 200 230 5,100 -540 Descending Indianapolis Center